Time;durP1;ratioP1;P1;durP2;ratioP2;P2;SDS_P1;SDS_P2;PMS_P1;PMS_P2;Temp;Humidity;BMP_temperature;BMP_pressure;BME280_temperature;BME280_humidity;BME280_pressure;Samples;Min_cycle;Max_cycle;Signal;HPM_P1;HPM_P2
2023/07/03 00:03:13;;;;;;;21.55;10.75;;;;;;;-145.68;85.47;73233.97;10581549;28;20217;-75
2023/07/03 00:08:16;;;;;;;19.35;11.13;;;;;;;-145.68;87.31;73243.97;10581525;28;20186;-75
2023/07/03 00:13:16;;;;;;;23.50;11.38;;;;;;;-145.68;88.96;73275.94;10581211;28;20271;-75
2023/07/03 00:18:16;;;;;;;24.83;11.52;;;;;;;-145.68;91.24;73289.94;10580863;28;20284;-75
2023/07/03 00:23:17;;;;;;;18.60;10.93;;;;;;;-145.68;90.88;73279.94;10581092;28;20222;-75
2023/07/03 00:28:18;;;;;;;24.38;10.90;;;;;;;-145.68;89.77;73269.94;10562463;28;20193;-75
2023/07/03 00:33:18;;;;;;;19.75;10.93;;;;;;;-145.68;88.75;73263.94;10580363;28;20226;-74
2023/07/03 00:38:18;;;;;;;21.63;11.00;;;;;;;-145.68;88.33;73265.94;10580716;28;20216;-74
2023/07/03 00:43:19;;;;;;;22.55;11.13;;;;;;;-145.68;87.46;73251.94;10579449;28;20729;-75
2023/07/03 00:48:19;;;;;;;18.85;10.63;;;;;;;-145.68;88.08;73269.94;10580192;28;20660;-75
2023/07/03 00:53:19;;;;;;;19.33;11.27;;;;;;;-145.68;89.26;73299.91;10560995;28;20559;-74
2023/07/03 00:58:20;;;;;;;23.67;12.00;;;;;;;-145.68;91.11;73311.91;10579792;28;20186;-75
2023/07/03 01:03:32;;;;;;;25.15;12.05;;;;;;;-145.68;91.05;73303.91;10559841;28;20263;-75
2023/07/03 01:08:33;;;;;;;21.80;11.45;;;;;;;-145.68;90.30;73295.94;10560430;28;20189;-75
2023/07/03 01:13:34;;;;;;;20.67;11.68;;;;;;;-145.68;88.64;73285.94;10578554;28;20174;-75
2023/07/03 01:18:37;;;;;;;23.58;10.48;;;;;;;-145.68;87.24;73291.94;10544139;28;20182;-75
2023/07/03 01:23:50;;;;;;;25.70;11.55;;;;;;;-145.68;88.12;73297.91;10578178;28;20686;-75
2023/07/03 01:28:54;;;;;;;20.58;11.35;;;;;;;-145.68;89.08;73301.91;10542590;28;20190;-75
2023/07/03 01:33:56;;;;;;;20.98;11.60;;;;;;;-145.68;89.81;73305.91;10559094;28;20690;-75
2023/07/03 01:38:57;;;;;;;24.80;11.52;;;;;;;-145.68;90.78;73303.91;10558734;28;20213;-75
2023/07/03 01:43:57;;;;;;;22.40;11.02;;;;;;;-145.68;90.47;73301.91;10541160;28;20585;-75
2023/07/03 01:48:57;;;;;;;24.83;11.10;;;;;;;-145.68;90.30;73305.91;10576995;28;20192;-75
2023/07/03 01:54:09;;;;;;;23.67;11.13;;;;;;;-145.68;90.11;73305.91;10559258;28;20232;-75
2023/07/03 01:59:15;;;;;;;29.77;12.18;;;;;;;-145.68;90.59;73319.91;10576970;28;20697;-75
2023/07/03 02:04:24;;;;;;;25.90;13.30;;;;;;;-145.68;93.01;73335.91;10558844;28;20217;-75
2023/07/03 02:09:25;;;;;;;27.13;11.57;;;;;;;-145.68;93.86;73343.88;10558747;28;20190;-74
2023/07/03 02:14:25;;;;;;;21.92;11.23;;;;;;;-145.68;94.75;73355.88;10558070;28;20679;-75
2023/07/03 02:19:31;;;;;;;23.90;11.63;;;;;;;-145.68;94.56;73349.88;10557437;28;20700;-75
2023/07/03 02:24:31;;;;;;;22.00;11.50;;;;;;;-145.68;93.81;73355.88;10558413;28;20319;-75
2023/07/03 02:29:33;;;;;;;27.33;12.45;;;;;;;-145.68;93.01;73351.88;10557778;28;20220;-75
2023/07/03 02:34:34;;;;;;;25.02;11.18;;;;;;;-145.68;91.79;73351.88;10576246;28;20230;-74
2023/07/03 02:39:34;;;;;;;21.60;11.15;;;;;;;-145.68;90.65;73343.88;10576247;28;20209;-75
2023/07/03 02:44:34;;;;;;;29.08;11.88;;;;;;;-145.68;89.57;73347.88;10575492;28;20213;-75
2023/07/03 02:49:35;;;;;;;23.92;11.10;;;;;;;-145.68;88.66;73335.91;10575915;28;20189;-75
2023/07/03 02:54:39;;;;;;;22.00;10.65;;;;;;;-145.68;86.85;73309.91;10557461;28;20346;-75
2023/07/03 02:59:41;;;;;;;23.48;12.20;;;;;;;-145.68;86.24;73307.91;10557613;28;20304;-75
2023/07/03 03:04:42;;;;;;;25.10;11.02;;;;;;;-145.68;85.13;73309.91;10550630;28;20662;-75
2023/07/03 03:09:42;;;;;;;26.20;12.02;;;;;;;-145.68;83.98;73297.91;10530121;28;20608;-74
2023/07/03 03:14:43;;;;;;;20.90;11.80;;;;;;;-145.68;83.26;73299.91;10511168;28;20276;-75
2023/07/03 03:19:43;;;;;;;21.08;11.25;;;;;;;-145.68;82.57;73297.91;10511427;28;20190;-75
2023/07/03 03:24:44;;;;;;;17.48;9.23;;;;;;;-145.68;79.70;73265.94;10511289;28;20183;-75
2023/07/03 03:29:44;;;;;;;22.35;10.93;;;;;;;-145.68;76.97;73245.97;10514064;28;20232;-75
2023/07/03 03:34:45;;;;;;;20.30;10.98;;;;;;;-145.68;75.56;73239.97;10502298;28;20614;-75
2023/07/03 03:39:45;;;;;;;21.25;11.48;;;;;;;-145.68;73.87;73217.97;10518202;28;20209;-75
2023/07/03 03:44:46;;;;;;;21.63;10.80;;;;;;;-145.68;73.22;73217.97;10518326;28;20290;-76
2023/07/03 03:49:46;;;;;;;19.60;9.80;;;;;;;-145.68;72.07;73200.00;10536342;28;20193;-76
2023/07/03 03:54:48;;;;;;;22.25;11.48;;;;;;;-145.68;69.36;73172.00;10518418;28;20728;-75
2023/07/03 03:59:48;;;;;;;19.25;10.48;;;;;;;-145.68;68.61;73164.00;10517855;28;20204;-75
2023/07/03 04:04:49;;;;;;;21.58;10.75;;;;;;;-145.68;67.35;73138.03;10521362;28;20309;-75
2023/07/03 04:09:49;;;;;;;20.80;10.77;;;;;;;-145.68;65.44;73102.06;10539184;28;20226;-75
2023/07/03 04:14:51;;;;;;;24.55;10.80;;;;;;;-145.68;64.45;73076.06;10504490;28;20219;-75
2023/07/03 04:19:51;;;;;;;22.48;10.25;;;;;;;-145.68;63.71;73052.09;10539069;28;20195;-75
2023/07/03 04:24:52;;;;;;;24.60;11.02;;;;;;;-145.68;62.97;73030.09;10520141;28;20270;-75
2023/07/03 04:29:53;;;;;;;23.95;11.32;;;;;;;-145.68;61.92;72998.13;10538730;28;20190;-75
2023/07/03 04:34:53;;;;;;;21.23;11.43;;;;;;;-145.68;60.97;72972.16;10538295;28;20701;-75
2023/07/03 04:39:54;;;;;;;23.27;10.25;;;;;;;-145.68;60.23;72952.16;10537265;28;20202;-75
2023/07/03 04:44:54;;;;;;;21.23;10.95;;;;;;;-145.68;59.89;72936.19;10537837;28;20186;-75
2023/07/03 04:49:58;;;;;;;22.98;10.68;;;;;;;-145.68;59.15;72928.19;10519600;28;20198;-75
2023/07/03 04:54:58;;;;;;;26.63;11.30;;;;;;;-145.68;58.95;72924.19;10537802;28;20218;-75
2023/07/03 05:00:00;;;;;;;25.25;12.27;;;;;;;-145.68;59.01;72918.19;10536886;28;20202;-75
2023/07/03 05:05:00;;;;;;;24.80;12.35;;;;;;;-145.68;59.07;72914.19;10537525;28;20319;-75
2023/07/03 05:10:01;;;;;;;28.50;12.27;;;;;;;-145.68;58.74;72914.19;10536641;28;20782;-75
2023/07/03 05:15:03;;;;;;;17.83;9.82;;;;;;;-145.68;58.23;72880.22;10536934;28;20263;-75
2023/07/03 05:20:08;;;;;;;26.33;11.82;;;;;;;-145.68;58.40;72866.22;10536377;28;20191;-75
2023/07/03 05:25:10;;;;;;;28.58;12.05;;;;;;;-145.68;58.70;72856.22;10536475;28;20646;-75
2023/07/03 05:30:11;;;;;;;25.17;10.35;;;;;;;-145.68;57.35;72842.25;10536071;28;20244;-75
2023/07/03 05:35:11;;;;;;;25.13;11.43;;;;;;;-145.68;57.62;72828.25;10535621;28;20293;-75
2023/07/03 05:40:14;;;;;;;20.77;10.65;;;;;;;-145.68;56.83;72828.25;10535606;28;20202;-75
2023/07/03 05:45:15;;;;;;;22.88;11.02;;;;;;;-145.68;56.83;72812.28;10535529;28;20197;-75
2023/07/03 05:50:15;;;;;;;22.10;11.23;;;;;;;-145.68;56.43;72826.25;10535296;28;20202;-76
2023/07/03 05:55:15;;;;;;;22.15;10.52;;;;;;;-145.68;56.66;72776.28;10535401;28;20190;-75
2023/07/03 06:00:16;;;;;;;20.98;11.93;;;;;;;-145.68;55.98;72810.28;10534822;28;20186;-76
2023/07/03 06:05:20;;;;;;;21.50;10.68;;;;;;;-145.68;55.81;72768.31;10534943;28;20187;-76
2023/07/03 06:10:21;;;;;;;24.05;10.88;;;;;;;-145.68;55.79;72854.25;10516873;28;20218;-76
2023/07/03 06:15:21;;;;;;;24.38;10.45;;;;;;;-145.68;56.07;72820.25;10534873;28;20721;-75
2023/07/03 06:20:22;;;;;;;29.02;10.82;;;;;;;-145.68;55.86;72778.28;10534411;28;20647;-75
2023/07/03 06:25:22;;;;;;;23.83;10.13;;;;;;;-145.68;54.64;72728.34;10534628;28;20237;-75
2023/07/03 06:30:22;;;;;;;22.40;9.85;;;;;;;-145.68;53.36;72706.34;10534085;28;20198;-75
2023/07/03 06:35:23;;;;;;;24.17;8.60;;;;;;;-145.68;52.60;72644.41;10534173;28;20712;-76
2023/07/03 06:40:24;;;;;;;20.27;9.13;;;;;;;-145.68;52.35;72644.41;10515726;28;20229;-76
2023/07/03 06:45:24;;;;;;;24.35;9.13;;;;;;;-145.68;51.69;72658.38;10533970;28;20193;-75
2023/07/03 06:50:24;;;;;;;22.83;8.38;;;;;;;-145.68;49.98;72580.47;10533439;28;20198;-75
2023/07/03 06:55:25;;;;;;;19.52;7.78;;;;;;;-145.68;50.75;72718.34;10533986;28;20294;-76
2023/07/03 07:00:25;;;;;;;15.77;7.28;;;;;;;-145.68;50.81;72708.34;10533524;28;20198;-76
2023/07/03 07:05:28;;;;;;;16.63;7.20;;;;;;;-145.68;48.60;72608.44;10538450;28;20196;-76
2023/07/03 07:10:28;;;;;;;21.98;7.35;;;;;;;-145.68;49.53;72594.44;10541690;28;20694;-75
2023/07/03 07:15:28;;;;;;;19.60;8.40;;;;;;;-145.68;47.45;72488.53;10541598;28;20281;-75
2023/07/03 07:20:29;;;;;;;18.15;7.30;;;;;;;-145.68;46.88;72452.56;10541448;28;20327;-76
2023/07/03 07:25:29;;;;;;;23.95;7.82;;;;;;;-145.68;44.19;72262.72;10541078;28;20277;-76
2023/07/03 07:30:29;;;;;;;20.02;7.63;;;;;;;-145.68;46.08;72560.47;10540765;28;20272;-76
2023/07/03 07:35:35;;;;;;;19.60;7.43;;;;;;;-145.68;48.53;72664.38;10540877;28;20250;-76
2023/07/03 07:40:35;;;;;;;20.55;7.25;;;;;;;-145.68;47.67;72528.50;10540250;28;20229;-75
2023/07/03 07:45:37;;;;;;;15.40;6.38;;;;;;;-145.68;45.80;72452.56;10540165;28;20191;-75
2023/07/03 07:50:37;;;;;;;15.15;6.03;;;;;;;-145.68;45.80;72480.53;10539628;28;20689;-75
2023/07/03 07:55:38;;;;;;;14.93;6.72;;;;;;;-145.68;47.22;72520.50;10540604;28;20189;-75
2023/07/03 08:00:40;;;;;;;19.60;7.07;;;;;;;-145.68;48.02;72580.47;10539195;28;20194;-76
2023/07/03 08:05:40;;;;;;;17.63;6.47;;;;;;;-145.68;47.54;72626.41;10539893;28;20190;-75
2023/07/03 08:10:41;;;;;;;18.15;5.75;;;;;;;-145.68;47.08;72596.44;10539353;28;20218;-76
2023/07/03 08:15:45;;;;;;;17.45;5.75;;;;;;;-145.68;45.65;72528.50;10537708;28;20192;-77
2023/07/03 08:20:45;;;;;;;18.73;6.40;;;;;;;-145.68;46.01;72562.47;10539336;28;20190;-75
2023/07/03 08:25:53;;;;;;;17.70;5.97;;;;;;;-145.68;46.01;72606.44;10539022;28;20200;-76
2023/07/03 08:30:54;;;;;;;20.85;6.00;;;;;;;-145.68;46.92;72618.44;10519965;28;20220;-76
2023/07/03 08:35:55;;;;;;;12.65;6.13;;;;;;;-145.68;45.68;72434.59;10520819;28;20596;-76
2023/07/03 08:40:59;;;;;;;16.65;5.63;;;;;;;-145.68;44.47;72374.63;10537823;28;20305;-75
2023/07/03 08:46:00;;;;;;;20.02;6.50;;;;;;;-145.68;45.30;72548.47;10537748;28;20285;-75
2023/07/03 08:51:02;;;;;;;21.70;6.18;;;;;;;-145.68;45.86;72590.44;10519514;28;20214;-75
2023/07/03 08:56:25;;;;;;;20.33;6.95;;;;;;;-145.68;45.52;72560.47;10519840;28;20197;-76
2023/07/03 09:01:52;;;;;;;19.35;6.32;;;;;;;-145.68;44.51;72410.59;10518907;28;20563;-75
2023/07/03 09:06:55;;;;;;;15.20;6.13;;;;;;;-145.68;43.62;72290.72;10519332;28;20178;-75
2023/07/03 09:12:02;;;;;;;12.95;5.90;;;;;;;-145.68;44.37;72374.63;10518399;28;20240;-75
2023/07/03 09:17:08;;;;;;;16.17;6.47;;;;;;;-145.68;43.41;72344.66;10518979;28;20282;-75
2023/07/03 09:22:16;;;;;;;20.33;7.38;;;;;;;-145.68;44.02;72526.50;10501971;28;20189;-75
2023/07/03 09:27:22;;;;;;;14.32;6.43;;;;;;;-145.68;43.34;72340.66;10518188;28;20190;-75
2023/07/03 09:32:28;;;;;;;17.65;6.65;;;;;;;-145.68;43.53;72392.63;10535595;28;20329;-75
2023/07/03 09:37:28;;;;;;;21.90;7.05;;;;;;;-145.68;45.24;72568.47;10501327;28;20207;-75
2023/07/03 09:42:32;;;;;;;19.10;7.05;;;;;;;-145.68;44.96;72554.47;10535218;28;20195;-75
2023/07/03 09:47:34;;;;;;;18.17;6.25;;;;;;;-145.68;44.69;72516.50;10535646;28;20182;-76
2023/07/03 09:52:44;;;;;;;23.67;7.82;;;;;;;-145.68;44.17;72412.59;10535419;28;20218;-75
2023/07/03 09:57:45;;;;;;;23.02;6.63;;;;;;;-145.68;42.88;72328.69;10517248;28;20190;-75
2023/07/03 10:02:45;;;;;;;22.20;6.60;;;;;;;-145.68;43.31;72318.69;10547089;28;20285;-75
2023/07/03 10:07:46;;;;;;;15.10;6.90;;;;;;;-145.68;44.00;72416.59;10577500;28;20190;-76
2023/07/03 10:12:57;;;;;;;14.68;6.00;;;;;;;-145.68;43.47;72488.53;10576117;28;20574;-77
2023/07/03 10:18:02;;;;;;;16.77;6.55;;;;;;;-145.68;42.50;72300.69;10558743;28;20186;-76
2023/07/03 10:23:04;;;;;;;17.75;6.82;;;;;;;-145.68;42.27;72346.66;10575900;28;20194;-75
2023/07/03 10:28:10;;;;;;;15.23;5.22;;;;;;;-145.68;42.28;72372.63;10576698;28;20198;-75
2023/07/03 10:33:15;;;;;;;16.45;6.20;;;;;;;-145.68;39.72;72142.84;10557562;28;20286;-75
2023/07/03 10:38:21;;;;;;;15.98;5.75;;;;;;;-145.68;42.03;72298.69;10557749;28;20686;-75
2023/07/03 10:43:23;;;;;;;18.77;6.57;;;;;;;-145.68;44.19;72438.56;10543637;28;20330;-75
2023/07/03 10:48:29;;;;;;;13.40;5.88;;;;;;;-145.68;42.61;72300.69;10516209;28;20320;-75
2023/07/03 10:53:37;;;;;;;15.52;6.30;;;;;;;-145.68;41.24;72202.78;10533404;28;20222;-75
2023/07/03 10:58:46;;;;;;;12.63;6.00;;;;;;;-145.68;41.59;72188.81;10533831;28;20190;-76
2023/07/03 11:03:59;;;;;;;15.55;6.38;;;;;;;-145.68;42.14;72170.81;10533860;28;20651;-75
2023/07/03 11:09:12;;;;;;;15.65;6.78;;;;;;;-145.68;42.10;72176.81;10515517;28;20190;-75
2023/07/03 11:14:55;;;;;;;14.80;6.10;;;;;;;-145.68;39.66;72018.97;10515123;28;20729;-75
2023/07/03 11:20:12;;;;;;;15.25;6.50;;;;;;;-145.68;39.62;72092.91;10533381;28;20685;-75
2023/07/03 11:25:27;;;;;;;17.30;6.30;;;;;;;-145.68;37.35;71897.09;10532896;28;20266;-75
2023/07/03 11:30:29;;;;;;;14.65;5.78;;;;;;;-145.68;40.04;72180.81;10514987;28;20269;-76
2023/07/03 11:35:29;;;;;;;16.20;6.63;;;;;;;-145.68;39.64;72090.91;10515037;28;20638;-75
2023/07/03 11:40:35;;;;;;;17.77;7.03;;;;;;;-145.68;41.33;72208.78;10532596;28;20210;-75
2023/07/03 11:45:36;;;;;;;12.95;5.55;;;;;;;-145.68;37.95;72098.88;10531183;28;20650;-75
2023/07/03 11:50:37;;;;;;;11.00;5.43;;;;;;;-145.68;37.53;72034.94;10517784;28;20248;-75
2023/07/03 11:55:39;;;;;;;14.90;6.10;;;;;;;-145.68;38.88;72176.81;10540386;28;20278;-75
2023/07/03 12:00:39;;;;;;;17.58;6.18;;;;;;;-145.68;39.04;72136.84;10521827;28;20189;-75
2023/07/03 12:12:21;;;;;;;20.02;6.15;;;;;;;-145.68;37.30;72044.94;10519113;28;20214;-76
2023/07/03 12:17:27;;;;;;;11.52;5.28;;;;;;;-145.68;37.51;72082.91;10521441;28;20914;-75
2023/07/03 12:22:28;;;;;;;15.43;6.18;;;;;;;-145.68;37.11;72074.91;10575052;28;20625;-75
2023/07/03 12:27:28;;;;;;;15.93;6.50;;;;;;;-145.68;40.00;72338.66;10561789;28;20186;-75
2023/07/03 12:32:31;;;;;;;18.20;5.80;;;;;;;-145.68;37.22;72094.88;10578802;28;20593;-75
2023/07/03 12:37:31;;;;;;;14.23;6.43;;;;;;;-145.68;39.33;72210.78;10577821;28;20213;-75
2023/07/03 12:42:31;;;;;;;14.23;5.68;;;;;;;-145.68;37.68;72050.94;10541240;28;20217;-75
2023/07/03 12:47:32;;;;;;;12.45;5.53;;;;;;;-145.68;40.12;72322.69;10559206;28;20197;-75
2023/07/03 12:52:33;;;;;;;20.35;5.80;;;;;;;-145.68;38.95;72134.84;10559034;28;20217;-75
2023/07/03 12:57:37;;;;;;;12.18;6.25;;;;;;;-145.68;39.12;72208.78;10576940;28;20198;-75
2023/07/03 13:02:38;;;;;;;13.88;5.45;;;;;;;-145.68;39.48;72152.84;10558418;28;20190;-75
2023/07/03 13:07:41;;;;;;;13.93;5.80;;;;;;;-145.68;38.70;72198.78;10576850;28;20202;-75
2023/07/03 13:12:42;;;;;;;11.80;6.28;;;;;;;-145.68;38.85;72066.91;10558073;28;20218;-75
2023/07/03 13:17:43;;;;;;;15.13;6.20;;;;;;;-145.68;38.24;72036.94;10576014;28;20221;-74
2023/07/03 13:22:49;;;;;;;19.77;6.18;;;;;;;-145.68;37.56;71931.06;10558238;28;20182;-75
2023/07/03 13:27:50;;;;;;;20.83;6.00;;;;;;;-145.68;36.38;71811.16;10576182;28;20269;-75
2023/07/03 13:32:52;;;;;;;14.15;5.05;;;;;;;-145.68;33.55;71569.44;10575682;28;20230;-75
2023/07/03 13:38:08;;;;;;;17.48;5.22;;;;;;;-145.68;33.20;71489.50;10557702;28;20206;-75
2023/07/03 13:43:09;;;;;;;13.60;5.57;;;;;;;-145.68;34.70;71693.28;10575532;28;20186;-75
2023/07/03 13:48:09;;;;;;;22.33;6.45;;;;;;;-145.68;37.67;72040.94;10576010;28;20259;-74
2023/07/03 13:53:10;;;;;;;15.63;5.50;;;;;;;-145.68;34.68;71693.28;10574774;28;20224;-75
2023/07/03 13:58:10;;;;;;;13.65;5.72;;;;;;;-145.68;35.42;71789.19;10575691;28;20254;-75
2023/07/03 14:03:13;;;;;;;12.88;5.57;;;;;;;-145.68;35.84;71835.16;10574798;28;20717;-75
2023/07/03 14:08:14;;;;;;;10.25;5.30;;;;;;;-145.68;36.98;71983.00;10557035;28;20210;-75
2023/07/03 14:13:15;;;;;;;16.52;5.28;;;;;;;-145.68;35.29;71671.31;10573072;28;20282;-75
2023/07/03 14:18:17;;;;;;;18.48;6.00;;;;;;;-145.68;33.51;71509.50;10573828;28;20186;-75
2023/07/03 14:23:17;;;;;;;17.30;6.18;;;;;;;-145.68;35.25;71863.13;10574023;28;20186;-75
2023/07/03 14:28:18;;;;;;;13.27;5.70;;;;;;;-145.68;37.41;72072.91;10573536;28;20649;-75
2023/07/03 14:33:18;;;;;;;18.40;5.50;;;;;;;-145.68;35.93;71915.06;10573433;28;20487;-75
2023/07/03 14:38:18;;;;;;;13.13;5.70;;;;;;;-145.68;34.99;71697.28;10573320;28;20785;-75
2023/07/03 14:43:19;;;;;;;12.90;5.20;;;;;;;-145.68;34.23;71629.38;10573285;28;21159;-75
2023/07/03 14:48:19;;;;;;;13.73;4.78;;;;;;;-145.68;32.37;71517.47;10573569;28;20617;-75
2023/07/03 14:53:20;;;;;;;14.43;4.70;;;;;;;-145.68;31.95;71415.59;10572429;28;20220;-75
2023/07/03 14:58:20;;;;;;;11.43;4.80;;;;;;;-145.68;35.08;71747.25;10574067;28;20514;-74
2023/07/03 15:03:21;;;;;;;16.83;5.28;;;;;;;-145.68;34.50;71785.19;10555277;28;20181;-75
2023/07/03 15:08:21;;;;;;;13.67;5.27;;;;;;;-145.68;35.52;71913.06;10573308;28;20190;-75
2023/07/03 15:13:21;;;;;;;13.35;4.82;;;;;;;-145.68;33.84;71717.28;10573540;28;20482;-75
2023/07/03 15:18:22;;;;;;;14.23;5.05;;;;;;;-145.68;32.82;71607.38;10573032;28;20567;-75
2023/07/03 15:23:22;;;;;;;12.07;4.50;;;;;;;-145.68;32.45;71647.34;10572957;28;20198;-75
2023/07/03 15:28:22;;;;;;;12.70;4.17;;;;;;;-145.68;33.00;71563.44;10580824;28;20443;-75
2023/07/03 15:33:24;;;;;;;8.83;3.77;;;;;;;-145.68;30.71;71205.84;10580208;28;20494;-75
2023/07/03 15:38:24;;;;;;;10.98;3.60;;;;;;;-145.68;31.59;71393.63;10580833;28;20466;-75
2023/07/03 15:43:25;;;;;;;8.20;3.10;;;;;;;-145.68;35.58;72068.91;10580040;28;20525;-74
2023/07/03 15:48:25;;;;;;;9.02;2.88;;;;;;;-145.68;35.54;72048.94;10580622;28;20236;-73
2023/07/03 15:53:26;;;;;;;10.15;2.85;;;;;;;-145.68;34.29;71835.16;10580189;28;20247;-74
2023/07/03 15:58:28;;;;;;;6.50;3.00;;;;;;;-145.68;34.73;71825.16;10580056;28;20214;-74
2023/07/03 16:03:30;;;;;;;7.22;2.72;;;;;;;-145.68;33.10;71769.22;10581866;28;20182;-74
2023/07/03 16:08:32;;;;;;;11.18;3.42;;;;;;;-145.68;35.46;72148.84;10581324;28;20190;-74
2023/07/03 16:13:33;;;;;;;9.80;3.28;;;;;;;-145.68;36.34;72174.81;10580337;28;20712;-75
2023/07/03 16:18:34;;;;;;;14.80;3.20;;;;;;;-145.68;36.88;72210.78;10581090;28;20196;-75
2023/07/03 16:23:34;;;;;;;8.00;3.08;;;;;;;-145.68;37.15;72226.75;10551735;28;20190;-75
2023/07/03 16:28:36;;;;;;;8.40;2.95;;;;;;;-145.68;38.49;72298.69;10520782;28;20289;-76
2023/07/03 16:33:39;;;;;;;10.25;3.22;;;;;;;-145.68;38.51;72272.72;10579700;28;20697;-75
2023/07/03 16:38:45;;;;;;;13.00;3.60;;;;;;;-145.68;38.31;72350.66;10579313;28;20210;-75
2023/07/03 16:43:47;;;;;;;8.63;2.90;;;;;;;-145.68;38.40;72354.66;10579985;28;20637;-74
2023/07/03 16:48:49;;;;;;;7.78;3.10;;;;;;;-145.68;37.88;72300.69;10580137;28;20194;-75
2023/07/03 16:53:49;;;;;;;13.18;3.40;;;;;;;-145.68;39.06;72440.56;10580073;28;20222;-75
2023/07/03 16:58:51;;;;;;;9.25;2.88;;;;;;;-145.68;38.39;72380.63;10561480;28;20186;-75
2023/07/03 17:03:52;;;;;;;7.47;2.90;;;;;;;-145.68;39.59;72390.63;10579238;28;20189;-75
2023/07/03 17:08:54;;;;;;;10.82;3.20;;;;;;;-145.68;39.07;72422.59;10579417;28;20264;-75
2023/07/03 17:13:54;;;;;;;9.63;3.63;;;;;;;-145.68;38.93;72376.63;10578725;28;20997;-75
2023/07/03 17:18:55;;;;;;;8.02;3.22;;;;;;;-145.68;38.70;72444.56;10578850;28;20186;-75
2023/07/03 17:23:58;;;;;;;8.65;3.20;;;;;;;-145.68;39.16;72466.56;10577946;28;20197;-75
2023/07/03 17:28:58;;;;;;;7.07;3.03;;;;;;;-145.68;39.60;72454.56;10577524;28;20977;-75
2023/07/03 17:33:59;;;;;;;7.40;3.33;;;;;;;-145.68;39.44;72446.56;10576956;28;20226;-74
2023/07/03 17:38:59;;;;;;;8.45;3.05;;;;;;;-145.68;39.53;72492.53;10558823;28;20263;-75
2023/07/03 17:43:59;;;;;;;9.63;3.15;;;;;;;-145.68;39.66;72468.56;10576462;28;20193;-75
2023/07/03 17:49:00;;;;;;;11.13;2.88;;;;;;;-145.68;40.64;72556.47;10558824;28;20202;-75
2023/07/03 17:54:00;;;;;;;12.40;3.60;;;;;;;-145.68;42.00;72568.47;10577698;28;20221;-75
2023/07/03 17:59:01;;;;;;;8.68;3.13;;;;;;;-145.68;41.34;72538.50;10577161;28;20190;-75
2023/07/03 18:04:02;;;;;;;10.23;3.15;;;;;;;-145.68;41.68;72544.50;10577491;28;20995;-75
2023/07/03 18:09:03;;;;;;;9.63;3.00;;;;;;;-145.68;42.54;72552.47;10558903;28;20247;-75
2023/07/03 18:14:05;;;;;;;6.38;3.03;;;;;;;-145.68;43.96;72578.47;10576991;28;20623;-75
2023/07/03 18:19:05;;;;;;;8.80;3.45;;;;;;;-145.68;46.04;72704.34;10576031;28;20684;-76
2023/07/03 18:24:06;;;;;;;10.45;3.78;;;;;;;-145.68;47.69;72792.28;10557446;28;20197;-76
2023/07/03 18:29:06;;;;;;;9.82;3.47;;;;;;;-145.68;48.47;72826.25;10575535;28;20189;-75
2023/07/03 18:34:06;;;;;;;9.93;3.00;;;;;;;-145.68;49.20;72822.25;10575270;28;20633;-75
2023/07/03 18:39:07;;;;;;;9.30;3.70;;;;;;;-145.68;49.45;72852.25;10575068;28;20278;-75
2023/07/03 18:44:07;;;;;;;11.05;3.40;;;;;;;-145.68;51.12;72912.19;10556675;28;20182;-75
2023/07/03 18:49:08;;;;;;;9.80;3.90;;;;;;;-145.68;52.30;72884.22;10575160;28;20194;-75
2023/07/03 18:54:08;;;;;;;11.70;3.17;;;;;;;-145.68;53.21;72986.13;10556607;28;20213;-75
2023/07/03 18:59:08;;;;;;;9.77;3.78;;;;;;;-145.68;55.44;73056.09;10575982;28;20650;-75
2023/07/03 19:04:11;;;;;;;11.65;3.97;;;;;;;-145.68;55.86;73072.06;10565138;28;20743;-76
2023/07/03 19:09:12;;;;;;;10.18;3.88;;;;;;;-145.68;55.98;73080.06;10583525;28;20660;-76
2023/07/03 19:14:12;;;;;;;16.25;3.75;;;;;;;-145.68;57.72;73146.03;10564749;28;20227;-76
2023/07/03 19:19:12;;;;;;;10.45;3.30;;;;;;;-145.68;58.30;73142.03;10581835;28;20204;-76
2023/07/03 19:24:13;;;;;;;7.55;2.92;;;;;;;-145.68;56.95;73126.03;10582446;28;20269;-76
2023/07/03 19:29:13;;;;;;;13.70;3.47;;;;;;;-145.68;57.85;73148.03;10582327;28;20200;-76
2023/07/03 19:34:14;;;;;;;13.15;4.03;;;;;;;-145.68;57.98;73156.00;10582522;28;20398;-76
2023/07/03 19:39:14;;;;;;;12.07;4.97;;;;;;;-145.68;58.01;73184.00;10581358;28;20712;-75
2023/07/03 19:44:14;;;;;;;9.60;3.33;;;;;;;-145.68;58.05;73176.00;10563757;28;20604;-76
2023/07/03 19:49:15;;;;;;;11.43;3.50;;;;;;;-145.68;58.17;73196.00;10546110;28;20581;-76
2023/07/03 19:54:15;;;;;;;8.68;3.25;;;;;;;-145.68;58.10;73211.97;10563355;28;20290;-75
2023/07/03 19:59:15;;;;;;;8.30;3.20;;;;;;;-145.68;58.92;73245.97;10581578;28;20185;-76
2023/07/03 20:04:16;;;;;;;8.07;3.67;;;;;;;-145.68;59.12;73239.97;10580785;28;20194;-76
2023/07/03 20:09:16;;;;;;;10.40;3.60;;;;;;;-145.68;59.67;73255.94;10581152;28;20269;-76
2023/07/03 20:14:18;;;;;;;8.90;3.22;;;;;;;-145.68;59.87;73263.94;10562353;28;20218;-76
2023/07/03 20:19:19;;;;;;;10.88;3.30;;;;;;;-145.68;60.54;73277.94;10580517;28;20190;-76
2023/07/03 20:24:20;;;;;;;9.93;3.03;;;;;;;-145.68;60.76;73285.94;10580430;28;20197;-76
2023/07/03 20:29:21;;;;;;;9.48;3.10;;;;;;;-145.68;61.05;73283.94;10579787;28;20201;-76
2023/07/03 20:34:21;;;;;;;11.85;3.53;;;;;;;-145.68;60.89;73293.94;10561598;28;20324;-78
2023/07/03 20:39:21;;;;;;;6.70;2.92;;;;;;;-145.68;61.25;73307.91;10580323;28;20294;-77
2023/07/03 20:44:22;;;;;;;10.23;3.80;;;;;;;-145.68;61.87;73323.91;10580499;28;20200;-77
2023/07/03 20:49:24;;;;;;;10.13;3.10;;;;;;;-145.68;62.02;73335.91;10579907;28;20182;-76
2023/07/03 20:54:42;;;;;;;11.43;3.65;;;;;;;-145.68;62.27;73351.88;10579706;28;20292;-77
2023/07/03 20:59:43;;;;;;;10.60;3.92;;;;;;;-145.68;62.54;73355.88;10561634;28;20231;-76
2023/07/03 21:04:43;;;;;;;8.13;3.70;;;;;;;-145.68;62.81;73361.88;10579187;28;20719;-77
2023/07/03 21:09:44;;;;;;;8.55;3.50;;;;;;;-145.68;62.83;73363.88;10560980;28;20638;-76
2023/07/03 21:14:44;;;;;;;11.55;3.65;;;;;;;-145.68;62.81;73369.88;10579056;28;20762;-75
2023/07/03 21:19:44;;;;;;;11.38;3.63;;;;;;;-145.68;62.87;73367.88;10578665;28;20645;-76
2023/07/03 21:24:45;;;;;;;12.85;3.92;;;;;;;-145.68;63.10;73391.84;10560028;28;20573;-76
2023/07/03 21:29:46;;;;;;;10.43;4.00;;;;;;;-145.68;63.54;73403.84;10578371;28;20533;-76
2023/07/03 21:34:48;;;;;;;7.85;3.70;;;;;;;-145.68;63.21;73405.84;10560275;28;20646;-76
2023/07/03 21:39:49;;;;;;;9.65;3.95;;;;;;;-145.68;63.71;73417.84;10559480;28;20221;-76
2023/07/03 21:44:49;;;;;;;6.00;2.70;;;;;;;-145.68;64.28;73437.84;10578001;28;20189;-76
2023/07/03 21:49:49;;;;;;;7.82;3.08;;;;;;;-145.68;64.25;73439.84;10576868;28;20190;-76
2023/07/03 21:54:50;;;;;;;6.40;3.45;;;;;;;-145.68;63.42;73427.84;10559283;28;20213;-76
2023/07/03 21:59:50;;;;;;;7.88;3.17;;;;;;;-145.68;62.69;73409.84;10577762;28;20559;-75
2023/07/03 22:04:51;;;;;;;7.32;3.00;;;;;;;-145.68;62.56;73413.84;10558651;28;20596;-76
2023/07/03 22:09:51;;;;;;;12.57;3.25;;;;;;;-145.68;62.27;73417.84;10558925;28;20565;-76
2023/07/03 22:14:51;;;;;;;10.57;3.45;;;;;;;-145.68;61.60;73405.84;10576561;28;20225;-76
2023/07/03 22:19:52;;;;;;;6.13;2.65;;;;;;;-145.68;60.83;73399.84;10576915;28;20238;-76
2023/07/03 22:24:52;;;;;;;7.88;3.00;;;;;;;-145.68;60.98;73397.84;10576357;28;20242;-76
2023/07/03 22:29:52;;;;;;;5.88;3.08;;;;;;;-145.68;60.51;73387.88;10576313;28;20724;-76
2023/07/03 22:34:53;;;;;;;7.90;3.35;;;;;;;-145.68;59.55;73369.88;10539937;28;20958;-76
2023/07/03 22:39:53;;;;;;;7.28;3.30;;;;;;;-145.68;58.87;73351.88;10532741;28;20672;-76
2023/07/03 22:44:54;;;;;;;7.32;3.08;;;;;;;-145.68;58.48;73341.91;10533915;28;20186;-76